Time;durP1;ratioP1;P1;durP2;ratioP2;P2;SDS_P1;SDS_P2;PMS_P1;PMS_P2;Temp;Humidity;BMP_temperature;BMP_pressure;BME280_temperature;BME280_humidity;BME280_pressure;Samples;Min_cycle;Max_cycle;Signal;HPM_P1;HPM_P2
2021/09/03 00:00:17;;;;;;;;;17.50;16.50;;;;;21.38;51.08;101233.44;5095924;27;47272;-87
2021/09/03 00:02:43;;;;;;;;;17.25;15.75;;;;;21.32;50.73;101238.38;5095799;27;47004;-82
2021/09/03 00:05:13;;;;;;;;;17.50;16.25;;;;;21.30;50.94;101237.72;5076987;27;45805;-78
2021/09/03 00:07:39;;;;;;;;;19.75;18.25;;;;;21.26;50.96;101241.72;5094883;27;45826;-81
2021/09/03 00:10:07;;;;;;;;;15.50;14.75;;;;;21.20;50.61;101230.88;5095189;27;45793;-85
2021/09/03 00:12:32;;;;;;;;;17.00;15.75;;;;;21.21;51.17;101240.53;5095312;27;46216;-81
2021/09/03 00:14:58;;;;;;;;;14.50;14.50;;;;;21.19;51.18;101234.53;5094739;27;45540;-82
2021/09/03 00:17:24;;;;;;;;;16.00;14.50;;;;;21.07;51.35;101217.13;5094598;27;45718;-84
2021/09/03 00:19:49;;;;;;;;;18.75;18.00;;;;;21.09;51.59;101228.47;5094470;27;46410;-80
2021/09/03 00:22:15;;;;;;;;;15.25;13.25;;;;;21.00;52.09;101216.94;5094797;27;45651;-77
2021/09/03 00:24:40;;;;;;;;;17.50;14.25;;;;;21.01;51.66;101228.44;5095044;27;46032;-77
2021/09/03 00:27:05;;;;;;;;;15.75;15.00;;;;;20.98;51.93;101234.94;5094880;27;45663;-78
2021/09/03 00:29:31;;;;;;;;;16.50;14.75;;;;;20.93;51.86;101229.25;5094234;27;45733;-81
2021/09/03 00:31:56;;;;;;;;;17.75;15.25;;;;;20.89;51.76;101226.06;5095154;27;45711;-82
2021/09/03 00:37:43;;;;;;;;;16.25;15.25;;;;;20.86;52.27;101229.06;5094643;27;45783;-81
2021/09/03 00:40:09;;;;;;;;;17.50;16.25;;;;;20.83;52.47;101217.91;5094504;27;46630;-82
2021/09/03 00:42:35;;;;;;;;;17.25;16.25;;;;;20.80;52.34;101224.38;5094949;27;46311;-84
2021/09/03 00:45:00;;;;;;;;;17.00;16.25;;;;;20.77;52.28;101223.88;5094580;27;46018;-79
2021/09/03 00:47:26;;;;;;;;;15.25;14.00;;;;;20.75;52.33;101212.53;5094935;27;45624;-80
2021/09/03 00:53:13;;;;;;;;;22.25;18.75;;;;;20.71;52.40;101208.53;5101274;27;45647;-84
2021/09/03 00:55:39;;;;;;;;;18.50;17.00;;;;;20.70;52.50;101205.03;5100196;27;45552;-81
2021/09/03 00:58:04;;;;;;;;;19.25;16.25;;;;;20.68;52.28;101201.66;5096675;27;45509;-79
2021/09/03 01:00:30;;;;;;;;;18.25;18.00;;;;;20.57;52.44;101183.31;5095824;27;47192;-81
2021/09/03 01:02:55;;;;;;;;;20.50;16.50;;;;;20.68;52.80;101200.84;5094272;27;46163;-82
2021/09/03 01:05:23;;;;;;;;;19.00;18.00;;;;;20.65;52.70;101195.84;5093665;27;46048;-81
2021/09/03 01:07:50;;;;;;;;;17.75;16.50;;;;;20.53;52.89;101180.13;5075331;27;45656;-79
2021/09/03 01:10:18;;;;;;;;;20.00;17.00;;;;;20.57;52.84;101191.28;5093815;27;46282;-78
2021/09/03 01:12:44;;;;;;;;;18.25;18.25;;;;;20.58;53.05;101192.97;5094014;27;47235;-79
2021/09/03 01:15:09;;;;;;;;;20.00;19.00;;;;;20.38;52.99;101164.94;5095427;27;45576;-77
2021/09/03 01:17:37;;;;;;;;;20.50;17.00;;;;;20.52;53.05;101186.47;5094221;27;45584;-79
2021/09/03 01:23:23;;;;;;;;;20.00;18.00;;;;;20.47;53.14;101175.44;5096800;27;45544;-80
2021/09/03 01:25:50;;;;;;;;;23.75;20.75;;;;;20.50;53.49;101176.97;5095742;27;45560;-79
2021/09/03 01:28:15;;;;;;;;;22.75;19.75;;;;;20.34;53.28;101167.09;5095538;27;45762;-78
2021/09/03 01:30:41;;;;;;;;;21.75;19.25;;;;;20.43;53.37;101178.59;5099701;27;45697;-77
2021/09/03 01:33:06;;;;;;;;;20.75;18.50;;;;;20.39;53.42;101170.09;5102858;27;46421;-77
2021/09/03 01:35:31;;;;;;;;;19.75;18.25;;;;;20.32;53.76;101171.72;5104127;27;45522;-79
2021/09/03 01:37:57;;;;;;;;;18.50;17.50;;;;;20.33;53.92;101177.88;5096557;27;45644;-76
2021/09/03 01:40:22;;;;;;;;;24.75;22.75;;;;;20.29;53.84;101174.69;5079092;27;47457;-78
2021/09/03 01:42:48;;;;;;;;;19.50;18.50;;;;;20.26;53.94;101172.31;5097759;27;46609;-78
2021/09/03 01:45:13;;;;;;;;;20.75;19.00;;;;;20.19;54.02;101160.63;5097866;27;45625;-82
2021/09/03 01:47:39;;;;;;;;;24.25;22.50;;;;;20.13;54.09;101157.78;5097557;27;45618;-78
2021/09/03 01:53:26;;;;;;;;;22.75;20.50;;;;;20.07;54.50;101159.25;5097579;27;45857;-79
2021/09/03 01:55:52;;;;;;;;;23.25;19.75;;;;;20.10;54.69;101173.06;5098884;27;45930;-78
2021/09/03 01:58:17;;;;;;;;;21.75;19.25;;;;;20.01;54.68;101157.19;5098989;27;45706;-88
2021/09/03 02:00:42;;;;;;;;;25.25;23.25;;;;;20.03;54.83;101164.03;5098697;27;46734;-88
2021/09/03 02:03:08;;;;;;;;;19.25;17.50;;;;;20.00;54.99;101175.00;5098156;27;46283;-78
2021/09/03 02:05:33;;;;;;;;;23.00;20.25;;;;;19.88;55.07;101149.63;5097399;27;45669;-85
2021/09/03 02:07:58;;;;;;;;;22.25;19.00;;;;;19.91;54.85;101159.97;5096569;27;45631;-81
2021/09/03 02:10:24;;;;;;;;;24.75;23.00;;;;;19.91;55.40;101165.28;5096920;27;46484;-83
2021/09/03 02:12:49;;;;;;;;;22.00;18.75;;;;;19.86;55.53;101156.09;5097060;27;45599;-81
2021/09/03 02:15:15;;;;;;;;;29.50;25.50;;;;;19.74;55.53;101150.19;5097574;27;45571;-82
2021/09/03 02:17:40;;;;;;;;;25.50;22.75;;;;;19.79;55.46;101161.22;5097032;27;45854;-83
2021/09/03 02:23:27;;;;;;;;;28.00;25.25;;;;;19.57;55.63;101149.25;5096391;27;45876;-81
2021/09/03 02:25:53;;;;;;;;;24.25;24.00;;;;;19.52;56.02;101140.06;5096679;27;46175;-83
2021/09/03 02:28:18;;;;;;;;;27.75;24.75;;;;;19.56;56.42;101162.69;5096672;27;45585;-84
2021/09/03 02:30:44;;;;;;;;;27.75;26.50;;;;;19.45;56.32;101161.09;5096420;27;47311;-79
2021/09/03 02:33:10;;;;;;;;;26.50;25.25;;;;;19.47;56.75;101161.78;5097064;27;46221;-82
2021/09/03 02:35:36;;;;;;;;;29.50;25.00;;;;;19.42;56.85;101164.03;5096908;27;45716;-77
2021/09/03 02:38:01;;;;;;;;;29.00;26.00;;;;;19.33;56.49;101151.63;5097332;27;45877;-82
2021/09/03 02:40:27;;;;;;;;;30.00;26.25;;;;;19.34;56.67;101158.63;5097896;27;46386;-82
2021/09/03 02:42:53;;;;;;;;;23.00;22.25;;;;;19.34;56.91;101157.78;5098020;27;46419;-87
2021/09/03 02:45:19;;;;;;;;;25.00;23.50;;;;;19.29;56.92;101153.78;5097445;27;45573;-81
2021/09/03 02:47:44;;;;;;;;;25.50;22.00;;;;;19.16;56.49;101128.59;5096695;27;45826;-82
2021/09/03 02:53:32;;;;;;;;;28.50;26.00;;;;;19.24;56.64;101150.75;5097601;27;46076;-84
2021/09/03 02:55:57;;;;;;;;;27.50;25.50;;;;;19.23;56.61;101146.41;5098189;27;45787;-81
2021/09/03 02:58:22;;;;;;;;;28.75;27.50;;;;;19.16;57.57;101140.03;5098575;27;45772;-79
2021/09/03 03:00:48;;;;;;;;;28.75;27.25;;;;;19.17;57.60;101148.81;5099700;27;45712;-84
2021/09/03 03:03:13;;;;;;;;;28.75;26.25;;;;;19.11;57.50;101150.25;5100470;27;45641;-77
2021/09/03 03:09:40;;;;;;;;;27.25;25.00;;;;;18.93;57.95;101135.31;5101694;27;45924;-80
2021/09/03 03:12:06;;;;;;;;;32.25;28.50;;;;;18.94;58.06;101145.78;5099488;27;46682;-79
2021/09/03 03:14:34;;;;;;;;;28.75;24.75;;;;;18.94;57.47;101143.13;5099298;27;45649;-84
2021/09/03 03:17:01;;;;;;;;;29.50;27.50;;;;;18.92;57.98;101141.59;5099233;27;45795;-82
2021/09/03 03:19:27;;;;;;;;;29.50;27.00;;;;;18.88;57.72;101137.59;5098951;27;45620;-79
2021/09/03 03:21:53;;;;;;;;;30.00;28.50;;;;;18.78;57.90;101127.03;5098995;27;45767;-78
2021/09/03 03:24:19;;;;;;;;;27.25;26.25;;;;;18.80;58.24;101138.31;5095893;27;46145;-79
2021/09/03 03:26:45;;;;;;;;;27.75;25.50;;;;;18.73;58.20;101124.78;5097637;27;45619;-80
2021/09/03 03:29:11;;;;;;;;;31.25;29.25;;;;;18.59;58.28;101111.19;5098287;27;45541;-82
2021/09/03 03:31:37;;;;;;;;;30.25;28.25;;;;;18.70;58.35;101129.56;5096815;27;45537;-82
2021/09/03 03:34:02;;;;;;;;;32.00;29.25;;;;;18.65;58.42;101121.22;5095710;27;46065;-77
2021/09/03 03:36:28;;;;;;;;;33.50;31.25;;;;;18.57;58.55;101113.19;5094930;27;45608;-80
2021/09/03 03:38:53;;;;;;;;;30.75;28.50;;;;;18.40;58.61;101090.91;5094399;27;45575;-79
2021/09/03 03:41:19;;;;;;;;;32.00;30.00;;;;;18.49;59.09;101115.69;5095040;27;46556;-80
2021/09/03 03:43:44;;;;;;;;;34.25;31.75;;;;;18.32;58.73;101093.44;5076153;27;47342;-79
2021/09/03 03:46:10;;;;;;;;;33.75;30.50;;;;;18.46;58.64;101127.47;5095160;27;45586;-83
2021/09/03 03:48:35;;;;;;;;;31.75;28.75;;;;;18.27;58.73;101101.84;5095214;27;45659;-78
2021/09/03 03:54:22;;;;;;;;;33.50;30.50;;;;;18.36;58.76;101129.28;5095095;27;45774;-78
2021/09/03 03:56:48;;;;;;;;;32.50;30.25;;;;;18.35;59.43;101130.31;5077269;27;45802;-80
2021/09/03 03:59:13;;;;;;;;;36.00;31.25;;;;;18.27;59.20;101123.06;5095652;27;45991;-78
2021/09/03 04:01:39;;;;;;;;;31.00;30.00;;;;;18.36;58.89;101139.91;5099348;27;46521;-86
2021/09/03 04:04:04;;;;;;;;;36.75;31.25;;;;;18.30;59.06;101122.75;5096794;27;46636;-85
2021/09/03 04:06:29;;;;;;;;;30.25;28.75;;;;;18.35;59.03;101128.44;5096443;27;45939;-86
2021/09/03 04:08:55;;;;;;;;;31.75;30.00;;;;;18.25;59.03;101111.75;5097477;27;45846;-85
2021/09/03 04:11:20;;;;;;;;;35.25;32.00;;;;;18.19;59.47;101111.53;5096321;27;47257;-88
2021/09/03 04:13:46;;;;;;;;;38.25;31.50;;;;;18.30;59.44;101135.22;5096704;27;46405;-86
2021/09/03 04:16:11;;;;;;;;;31.25;29.00;;;;;18.17;59.00;101109.00;5094967;27;46141;-79
2021/09/03 04:18:38;;;;;;;;;34.50;31.00;;;;;18.26;59.36;101116.06;5094466;27;45829;-78
2021/09/03 04:24:25;;;;;;;;;32.50;30.75;;;;;18.24;59.21;101130.47;5094776;27;46007;-81
2021/09/03 04:26:51;;;;;;;;;36.00;30.75;;;;;18.14;59.52;101111.94;5095214;27;45960;-83
2021/09/03 04:29:16;;;;;;;;;36.25;30.00;;;;;18.20;59.42;101124.63;5097950;27;45894;-85
2021/09/03 04:31:42;;;;;;;;;36.75;32.25;;;;;18.16;60.03;101122.41;5104753;27;45727;-88
2021/09/03 04:34:07;;;;;;;;;39.00;31.00;;;;;18.14;60.29;101125.19;5104631;27;46166;-78
2021/09/03 04:36:33;;;;;;;;;36.00;31.25;;;;;17.98;59.98;101098.44;5103303;27;45486;-80
2021/09/03 04:38:58;;;;;;;;;38.50;31.75;;;;;18.06;60.28;101118.94;5098856;27;45835;-76
2021/09/03 04:41:23;;;;;;;;;38.00;33.00;;;;;18.03;60.27;101128.84;5099601;27;45743;-80
2021/09/03 04:43:49;;;;;;;;;38.50;31.75;;;;;17.93;60.57;101116.59;5100538;27;45708;-83
2021/09/03 04:46:14;;;;;;;;;33.50;30.75;;;;;17.95;60.37;101122.63;5099435;27;45552;-82
2021/09/03 04:48:39;;;;;;;;;36.00;31.75;;;;;17.96;60.59;101137.53;5098424;27;45688;-79
2021/09/03 04:54:27;;;;;;;;;33.50;32.00;;;;;17.91;60.27;101121.22;5093866;27;46247;-84
2021/09/03 04:56:52;;;;;;;;;37.50;32.50;;;;;17.88;60.57;101119.69;5092795;27;45750;-79
2021/09/03 04:59:18;;;;;;;;;37.75;32.25;;;;;17.87;60.44;101118.00;5094440;27;45703;-82
2021/09/03 05:01:43;;;;;;;;;32.50;29.50;;;;;17.81;60.46;101108.00;5097057;27;46345;-78
2021/09/03 05:10:33;;;;;;;;;31.75;30.00;;;;;17.75;60.95;101115.69;5094522;27;45857;-80
2021/09/03 05:12:59;;;;;;;;;33.25;30.75;;;;;17.67;61.15;101105.78;5093670;27;45563;-80
2021/09/03 05:15:32;;;;;;;;;39.50;32.50;;;;;17.70;60.99;101110.81;5097346;27;46339;-82
2021/09/03 05:18:01;;;;;;;;;36.50;29.75;;;;;17.67;60.88;101110.25;5102229;27;45755;-90
2021/09/03 05:20:32;;;;;;;;;33.50;31.50;;;;;17.50;61.04;101086.13;5082719;27;45758;-89
2021/09/03 05:23:01;;;;;;;;;31.25;30.00;;;;;17.48;60.83;101098.69;5100492;27;48660;-89
2021/09/03 05:25:28;;;;;;;;;35.75;31.50;;;;;17.62;60.79;101126.59;5099694;27;45690;-88
2021/09/03 05:27:54;;;;;;;;;36.00;32.25;;;;;17.36;61.18;101083.06;5098321;27;45800;-85
2021/09/03 05:30:19;;;;;;;;;34.00;31.00;;;;;17.63;61.28;101116.81;5097086;27;45676;-78
2021/09/03 05:32:46;;;;;;;;;39.00;33.75;;;;;17.50;61.27;101101.19;5097041;27;46420;-82
2021/09/03 05:35:12;;;;;;;;;33.75;31.00;;;;;17.61;60.85;101111.66;5096538;27;47339;-80
2021/09/03 05:37:38;;;;;;;;;36.75;31.75;;;;;17.66;60.66;101121.81;5097084;27;45566;-81
2021/09/03 05:40:06;;;;;;;;;36.00;32.50;;;;;17.66;61.35;101122.66;5097415;27;45733;-81
2021/09/03 05:42:32;;;;;;;;;35.00;32.00;;;;;17.64;60.92;101119.34;5096930;27;45659;-82
2021/09/03 05:44:57;;;;;;;;;37.00;32.75;;;;;17.69;61.28;101121.56;5077947;27;46924;-76
2021/09/03 05:47:23;;;;;;;;;34.50;31.00;;;;;17.69;61.08;101126.84;5096740;27;45830;-80
2021/09/03 05:49:49;;;;;;;;;35.75;31.00;;;;;17.57;61.32;101105.78;5097337;27;45840;-85
2021/09/03 05:52:14;;;;;;;;;38.50;33.25;;;;;17.65;61.23;101123.66;5097769;27;45630;-81
2021/09/03 05:54:39;;;;;;;;;37.50;32.00;;;;;17.66;61.43;101135.91;5097047;27;46163;-78
2021/09/03 05:57:05;;;;;;;;;32.50;29.50;;;;;17.63;61.38;101133.56;5096621;27;45705;-78
2021/09/03 05:59:32;;;;;;;;;39.25;32.00;;;;;17.63;61.17;101127.41;5096374;27;45769;-85
2021/09/03 06:01:57;;;;;;;;;34.50;31.50;;;;;17.66;61.32;101127.13;5096446;27;46685;-80
2021/09/03 06:04:22;;;;;;;;;34.75;32.00;;;;;17.59;60.91;101124.19;5096786;27;46183;-81
2021/09/03 06:10:10;;;;;;;;;32.75;30.00;;;;;17.70;60.86;101133.84;5096195;27;45708;-81
2021/09/03 06:12:36;;;;;;;;;41.75;32.75;;;;;17.62;60.83;101121.28;5097882;27;46704;-79
2021/09/03 06:15:07;;;;;;;;;39.50;33.25;;;;;17.68;60.80;101131.31;5098728;27;46935;-84
2021/09/03 06:17:33;;;;;;;;;40.50;34.50;;;;;17.72;60.91;101138.00;5098166;27;45648;-78
2021/09/03 06:19:58;;;;;;;;;36.50;32.00;;;;;17.65;61.28;101121.00;5096529;27;45782;-78
2021/09/03 06:22:24;;;;;;;;;37.00;33.00;;;;;17.75;61.07;101137.72;5097214;27;47430;-82
2021/09/03 06:24:50;;;;;;;;;35.75;32.00;;;;;17.70;61.35;101124.06;5096951;27;46376;-79
2021/09/03 06:27:16;;;;;;;;;37.50;32.25;;;;;17.75;61.29;101136.91;5098469;27;46069;-83
2021/09/03 06:29:42;;;;;;;;;32.75;30.00;;;;;17.78;61.28;101126.00;5099791;27;45505;-77
2021/09/03 06:32:10;;;;;;;;;35.25;31.50;;;;;17.80;61.21;101124.06;5097184;27;46600;-78
2021/09/03 06:34:39;;;;;;;;;41.50;32.25;;;;;17.79;60.73;101120.56;5095064;27;46132;-78
2021/09/03 06:40:26;;;;;;;;;36.75;32.75;;;;;17.86;61.19;101118.19;5095461;27;46014;-80
2021/09/03 06:42:52;;;;;;;;;45.25;35.75;;;;;17.86;60.70;101126.97;5095372;27;46850;-77
2021/09/03 06:45:17;;;;;;;;;38.00;32.00;;;;;17.89;60.70;101123.19;5095129;27;45984;-78
2021/09/03 06:47:43;;;;;;;;;36.75;33.00;;;;;17.89;61.09;101120.53;5094759;27;45668;-78
2021/09/03 06:50:09;;;;;;;;;39.25;32.75;;;;;17.91;61.14;101130.03;5095023;27;45712;-79
2021/09/03 06:52:34;;;;;;;;;39.00;33.25;;;;;17.84;60.71;101109.53;5076422;27;47228;-78
2021/09/03 06:55:02;;;;;;;;;40.75;33.25;;;;;17.94;60.65;101126.25;5095074;27;45650;-80
2021/09/03 06:57:28;;;;;;;;;41.00;34.75;;;;;17.96;61.08;101135.72;5094817;27;45947;-79
2021/09/03 06:59:53;;;;;;;;;36.75;32.50;;;;;17.91;61.06;101123.88;5095608;27;45794;-77
2021/09/03 07:02:19;;;;;;;;;39.50;33.50;;;;;17.91;61.03;101122.06;5095803;27;46624;-80
2021/09/03 07:04:44;;;;;;;;;36.75;30.75;;;;;18.01;61.06;101138.78;5097732;27;46332;-78
2021/09/03 07:10:32;;;;;;;;;34.00;31.50;;;;;17.96;60.98;101119.00;5096590;27;46004;-80
2021/09/03 07:12:57;;;;;;;;;35.75;32.75;;;;;18.00;60.71;101128.31;5096056;27;46199;-78
2021/09/03 07:15:22;;;;;;;;;33.25;29.75;;;;;18.05;60.80;101134.03;5094010;27;46344;-79
2021/09/03 07:17:48;;;;;;;;;35.25;32.00;;;;;18.12;60.76;101134.28;5092878;27;45530;-79
2021/09/03 07:20:13;;;;;;;;;34.75;31.50;;;;;18.10;60.36;101120.31;5094235;27;45641;-80
2021/09/03 07:26:01;;;;;;;;;39.25;32.25;;;;;18.19;60.15;101127.44;5094131;27;45745;-79
2021/09/03 07:28:27;;;;;;;;;33.75;31.50;;;;;18.16;60.60;101123.25;5093398;27;45750;-78
2021/09/03 07:30:53;;;;;;;;;36.75;32.50;;;;;18.12;60.06;101113.06;5094054;27;45716;-78
2021/09/03 07:33:19;;;;;;;;;33.75;30.25;;;;;18.23;60.50;101134.09;5091567;27;47698;-80
2021/09/03 07:35:45;;;;;;;;;36.00;33.00;;;;;18.30;59.95;101130.72;5093809;27;45528;-79
2021/09/03 07:38:11;;;;;;;;;37.75;32.00;;;;;18.33;60.29;101122.47;5092509;27;45855;-77
2021/09/03 07:40:36;;;;;;;;;36.75;32.00;;;;;18.27;60.03;101114.25;5093805;27;45676;-79
2021/09/03 07:43:10;;;;;;;;;40.75;32.50;;;;;18.40;60.24;101134.19;5093234;27;47178;-77
2021/09/03 07:45:38;;;;;;;;;41.50;34.75;;;;;18.43;60.38;101125.91;5075841;27;47777;-79
2021/09/03 07:48:05;;;;;;;;;36.50;31.00;;;;;18.44;59.71;101118.78;5094154;27;45872;-79
2021/09/03 07:56:38;;;;;;;;;41.75;32.00;;;;;18.57;59.98;101126.47;5093711;27;46055;-79
2021/09/03 07:59:03;;;;;;;;;38.75;33.00;;;;;18.55;60.00;101118.63;5096247;27;45815;-77
2021/09/03 08:01:29;;;;;;;;;38.00;32.75;;;;;18.64;59.88;101131.00;5096875;27;45652;-79
2021/09/03 08:03:55;;;;;;;;;39.50;32.75;;;;;18.68;59.67;101126.22;5096527;27;46459;-79
2021/09/03 08:06:20;;;;;;;;;40.00;32.50;;;;;18.66;60.02;101112.28;5100295;27;45812;-78
2021/09/03 08:08:46;;;;;;;;;40.25;34.25;;;;;18.76;59.53;101132.47;5100816;27;45671;-80
2021/09/03 08:11:11;;;;;;;;;36.25;31.75;;;;;18.78;59.90;101127.88;5081583;27;45721;-78
2021/09/03 08:13:36;;;;;;;;;37.25;33.00;;;;;18.65;59.54;101100.84;5098653;27;45870;-81
2021/09/03 08:16:03;;;;;;;;;37.25;32.00;;;;;18.84;59.33;101121.09;5095378;27;46153;-79
2021/09/03 08:18:28;;;;;;;;;38.75;33.75;;;;;18.83;59.32;101114.97;5092973;27;45688;-78
2021/09/03 08:20:54;;;;;;;;;34.75;32.00;;;;;18.97;59.11;101126.06;5092720;27;45825;-77
2021/09/03 08:23:19;;;;;;;;;37.25;32.25;;;;;19.01;59.00;101122.09;5093372;27;46191;-78
2021/09/03 08:25:45;;;;;;;;;37.75;33.00;;;;;19.05;59.11;101131.47;5092958;27;45683;-79
2021/09/03 08:28:12;;;;;;;;;41.25;34.00;;;;;19.10;59.53;101127.38;5092325;27;45659;-78
2021/09/03 08:30:37;;;;;;;;;37.50;31.75;;;;;19.10;59.07;101121.22;5093044;27;45656;-80
2021/09/03 08:33:02;;;;;;;;;37.25;32.25;;;;;19.19;58.87;101125.63;5092545;27;45961;-79
2021/09/03 08:35:28;;;;;;;;;40.00;34.00;;;;;19.23;58.90;101124.31;5092692;27;45894;-79
2021/09/03 08:41:18;;;;;;;;;33.75;32.00;;;;;19.35;58.88;101120.44;5092573;27;45533;-79
2021/09/03 08:43:43;;;;;;;;;36.25;32.00;;;;;19.38;58.68;101114.81;5092484;27;45719;-79
2021/09/03 08:46:10;;;;;;;;;31.50;28.75;;;;;19.42;58.46;101108.22;5092780;27;45805;-79
2021/09/03 08:48:36;;;;;;;;;32.50;29.50;;;;;19.43;58.46;101111.72;5090757;27;46011;-79
2021/09/03 08:57:07;;;;;;;;;31.00;29.50;;;;;19.58;58.33;101103.06;5092730;27;46134;-77
2021/09/03 08:59:32;;;;;;;;;33.00;29.75;;;;;19.69;58.46;101107.28;5092907;27;45871;-77
2021/09/03 09:02:20;;;;;;;;;32.75;30.50;;;;;19.76;58.05;101108.31;5093548;27;45664;-78
2021/09/03 09:04:50;;;;;;;;;33.00;29.50;;;;;19.81;58.12;101108.69;5094360;27;46913;-77
2021/09/03 09:07:16;;;;;;;;;33.50;29.00;;;;;19.88;58.11;101111.56;5093764;27;46249;-78
2021/09/03 09:09:47;;;;;;;;;29.00;27.75;;;;;19.94;57.78;101113.59;5093721;27;45743;-78
2021/09/03 09:12:18;;;;;;;;;26.50;26.25;;;;;19.94;57.93;101097.63;5092665;27;45588;-79
2021/09/03 09:15:07;;;;;;;;;26.50;22.75;;;;;20.07;57.61;101108.69;5092311;27;46478;-79
2021/09/03 09:17:37;;;;;;;;;33.25;25.75;;;;;20.15;57.63;101106.06;5091110;27;46260;-79
2021/09/03 09:20:05;;;;;;;;;21.75;21.75;;;;;20.21;57.30;101107.25;5091720;27;45891;-78
2021/09/03 09:22:53;;;;;;;;;25.25;24.00;;;;;20.28;57.04;101097.66;5091135;27;45883;-79
2021/09/03 09:25:21;;;;;;;;;23.50;22.50;;;;;20.33;57.26;101098.88;5095024;27;45729;-77
2021/09/03 09:27:47;;;;;;;;;23.25;19.50;;;;;20.39;56.90;101102.72;5099656;27;46336;-78
2021/09/03 09:30:25;;;;;;;;;22.50;20.75;;;;;20.45;56.74;101104.75;5095234;27;45765;-76
2021/09/03 09:33:15;;;;;;;;;25.75;24.75;;;;;20.55;56.78;101101.94;5095343;27;45632;-78
2021/09/03 09:35:52;;;;;;;;;21.50;21.50;;;;;20.61;56.57;101103.97;5093463;27;46668;-78
2021/09/03 09:38:20;;;;;;;;;22.00;21.25;;;;;20.67;56.41;101090.84;5090820;27;47262;-77
2021/09/03 09:40:51;;;;;;;;;26.75;24.00;;;;;20.70;56.31;101095.84;5091718;27;45806;-80
2021/09/03 09:43:34;;;;;;;;;21.25;20.00;;;;;20.76;56.14;101087.19;5091216;27;45822;-76
2021/09/03 09:46:15;;;;;;;;;21.75;20.75;;;;;20.84;55.88;101089.84;5091281;27;45570;-78
2021/09/03 09:48:50;;;;;;;;;24.00;21.00;;;;;20.91;55.41;101093.53;5090701;27;45724;-76
2021/09/03 09:51:27;;;;;;;;;25.75;22.00;;;;;20.94;55.61;101085.22;5090391;27;45801;-77
2021/09/03 09:54:14;;;;;;;;;25.50;22.50;;;;;21.04;55.48;101084.25;5091123;27;45883;-78
2021/09/03 09:57:01;;;;;;;;;19.50;17.50;;;;;21.06;55.38;101071.56;5090743;27;47382;-78
2021/09/03 09:59:29;;;;;;;;;24.25;20.50;;;;;21.18;55.25;101079.13;5091305;27;47393;-78
2021/09/03 10:01:57;;;;;;;;;25.50;23.50;;;;;21.24;55.11;101070.47;5076867;27;45615;-77
2021/09/03 10:04:25;;;;;;;;;22.75;20.75;;;;;21.29;54.77;101067.28;5095192;27;45761;-76
2021/09/03 10:10:13;;;;;;;;;21.00;20.00;;;;;21.39;54.62;101056.44;5052968;27;1218134;-78
2021/09/03 10:12:39;;;;;;;;;21.75;19.25;;;;;21.48;54.62;101064.28;5098257;27;45632;-78
2021/09/03 10:15:05;;;;;;;;;19.25;17.75;;;;;21.58;54.56;101064.09;5103318;27;45835;-80
2021/09/03 10:17:32;;;;;;;;;16.75;16.50;;;;;21.63;54.63;101067.94;5102439;27;45572;-78
2021/09/03 10:19:58;;;;;;;;;18.25;17.25;;;;;21.68;54.02;101067.41;5103202;27;45596;-78
2021/09/03 10:25:52;;;;;;;;;18.00;17.00;;;;;21.79;54.23;101056.38;5095386;27;45709;-77
2021/09/03 10:28:26;;;;;;;;;20.00;15.75;;;;;21.83;53.80;101048.88;5094914;27;45615;-77
2021/09/03 10:31:06;;;;;;;;;15.00;14.25;;;;;21.95;53.74;101067.06;5094235;27;45645;-77
2021/09/03 10:33:36;;;;;;;;;19.25;16.25;;;;;22.01;53.67;101066.38;5095277;27;45820;-77
2021/09/03 10:36:03;;;;;;;;;18.00;17.25;;;;;22.07;53.82;101054.16;5077640;27;45822;-77
2021/09/03 10:41:52;;;;;;;;;16.25;15.25;;;;;22.20;53.31;101051.75;5095187;27;46009;-79
2021/09/03 10:44:17;;;;;;;;;15.00;14.25;;;;;22.31;53.12;101063.91;5095975;27;45895;-79
2021/09/03 10:46:43;;;;;;;;;18.00;16.50;;;;;22.34;53.19;101052.88;5095292;27;46158;-79
2021/09/03 10:49:09;;;;;;;;;18.25;17.00;;;;;22.40;52.74;101054.88;5095508;27;46363;-77
2021/09/03 10:51:36;;;;;;;;;18.25;17.50;;;;;22.44;52.44;101049.00;5096145;27;46017;-79
2021/09/03 10:57:24;;;;;;;;;15.50;14.25;;;;;22.51;52.84;101036.56;5100842;27;45692;-79
2021/09/03 11:00:18;;;;;;;;;16.25;14.50;;;;;22.63;52.25;101041.53;5100466;27;46985;-80
2021/09/03 11:02:43;;;;;;;;;17.00;15.50;;;;;22.71;52.42;101049.50;5099520;27;46629;-80
2021/09/03 11:05:10;;;;;;;;;15.75;14.50;;;;;22.74;51.99;101033.97;5099851;27;45564;-79
2021/09/03 11:07:43;;;;;;;;;20.25;16.75;;;;;22.81;52.10;101042.13;5077368;27;45963;-79
2021/09/03 11:10:20;;;;;;;;;15.25;14.50;;;;;22.84;51.42;101042.56;5095499;27;46953;-79
2021/09/03 11:12:52;;;;;;;;;17.50;14.00;;;;;22.88;51.75;101032.38;5094468;27;45918;-79
2021/09/03 11:15:18;;;;;;;;;17.75;16.75;;;;;22.97;51.45;101040.16;5095105;27;45435;-77
2021/09/03 11:17:45;;;;;;;;;16.00;14.75;;;;;23.06;51.99;101032.06;5095200;27;45546;-79
2021/09/03 11:20:13;;;;;;;;;18.00;17.00;;;;;23.04;51.42;101010.03;5094944;27;47643;-79
2021/09/03 11:22:39;;;;;;;;;14.00;13.25;;;;;23.03;51.72;100998.50;5076493;27;46836;-76
2021/09/03 11:25:07;;;;;;;;;17.00;14.00;;;;;23.23;51.96;101020.22;5095239;27;45858;-79
2021/09/03 11:27:34;;;;;;;;;15.50;15.50;;;;;23.30;51.47;101024.66;5076207;27;46011;-79
2021/09/03 11:30:09;;;;;;;;;16.25;16.00;;;;;23.34;50.66;101027.81;5093237;27;47462;-79
2021/09/03 11:32:38;;;;;;;;;19.00;16.00;;;;;23.36;51.06;101015.91;5094595;27;46406;-80
2021/09/03 11:35:14;;;;;;;;;19.25;17.50;;;;;23.38;51.43;101011.19;5095313;27;45716;-79
2021/09/03 11:37:46;;;;;;;;;21.50;18.00;;;;;23.50;50.78;101008.94;5095556;27;45629;-78
2021/09/03 11:40:30;;;;;;;;;17.00;14.50;;;;;23.56;50.82;101008.22;5094534;27;45590;-78
2021/09/03 11:43:01;;;;;;;;;16.75;16.50;;;;;23.60;50.81;101014.84;5076054;27;47074;-79
2021/09/03 11:45:35;;;;;;;;;17.50;16.00;;;;;23.64;50.86;101008.16;5094578;27;45584;-78
2021/09/03 11:48:08;;;;;;;;;15.75;15.00;;;;;23.70;50.94;101010.06;5095129;27;45610;-78
2021/09/03 11:50:45;;;;;;;;;16.00;15.00;;;;;23.76;50.84;101006.66;5096134;27;46898;-79
2021/09/03 11:53:22;;;;;;;;;17.75;15.00;;;;;23.83;50.89;100998.72;5095388;27;47392;-77
2021/09/03 11:55:49;;;;;;;;;15.75;15.50;;;;;23.90;50.62;100994.28;5097759;27;45549;-78
2021/09/03 11:58:17;;;;;;;;;18.75;16.75;;;;;23.95;50.27;100989.22;5098649;27;45624;-79
2021/09/03 12:00:48;;;;;;;;;17.00;17.00;;;;;24.02;50.59;100994.66;5099095;27;46696;-80
2021/09/03 12:03:18;;;;;;;;;19.75;15.75;;;;;24.06;50.16;100986.06;5097386;27;46278;-79
2021/09/03 12:05:57;;;;;;;;;15.25;14.25;;;;;24.10;50.34;100987.31;5094374;27;45673;-79
2021/09/03 12:08:22;;;;;;;;;18.25;17.00;;;;;24.20;50.30;100995.91;5093956;27;45705;-78
2021/09/03 12:11:10;;;;;;;;;18.00;17.00;;;;;24.28;50.29;101002.19;5093387;27;47600;-78
2021/09/03 12:13:40;;;;;;;;;12.75;12.75;;;;;24.32;50.19;100990.06;5093752;27;45996;-80
2021/09/03 12:16:16;;;;;;;;;14.25;12.75;;;;;24.37;50.16;100985.81;5093889;27;45839;-81
2021/09/03 12:18:47;;;;;;;;;18.25;16.00;;;;;24.43;50.04;100984.22;5094236;27;45863;-76
2021/09/03 12:21:27;;;;;;;;;16.00;15.00;;;;;24.49;49.90;100991.50;5093463;27;45721;-78
2021/09/03 12:24:01;;;;;;;;;15.75;15.00;;;;;24.52;49.95;100983.06;5093823;27;46185;-77
2021/09/03 12:26:38;;;;;;;;;16.00;14.00;;;;;24.56;49.79;100976.34;5093742;27;45689;-76
2021/09/03 12:29:11;;;;;;;;;14.50;14.00;;;;;24.62;49.89;100973.69;5093341;27;45548;-79
2021/09/03 12:31:36;;;;;;;;;16.00;13.00;;;;;24.68;49.72;100978.28;5093280;27;46260;-75
2021/09/03 12:34:07;;;;;;;;;17.50;16.00;;;;;24.73;49.84;100963.47;5093170;27;45631;-76